Time;durP1;ratioP1;P1;durP2;ratioP2;P2;SDS_P1;SDS_P2;PMS_P1;PMS_P2;Temp;Humidity;BMP_temperature;BMP_pressure;BME280_temperature;BME280_humidity;BME280_pressure;Samples;Min_cycle;Max_cycle;Signal;HPM_P1;HPM_P2
2021/03/10 12:54:30;;;;;;;13.57;7.43;;;;;;;6.59;42.25;101024.38;20362748;27;7991319;-58
2021/03/10 13:04:30;;;;;;;8.37;6.20;;;;;;;6.35;44.13;101012.88;20590674;28;20550;-55
2021/03/10 13:14:31;;;;;;;9.33;5.73;;;;;;;6.41;45.19;101020.56;20700593;28;20839;-56
2021/03/10 13:24:32;;;;;;;7.30;5.53;;;;;;;7.07;45.29;101014.56;20758007;28;20264;-56
2021/03/10 13:34:34;;;;;;;7.10;5.87;;;;;;;7.34;44.36;101009.97;20759809;28;20695;-56
2021/03/10 13:44:34;;;;;;;8.37;6.60;;;;;;;7.41;45.65;101008.78;20737700;28;20300;-58
2021/03/10 13:54:35;;;;;;;7.30;5.87;;;;;;;7.49;45.05;101000.50;20756654;28;20234;-56
2021/03/10 14:04:35;;;;;;;7.37;6.00;;;;;;;7.88;44.80;101005.94;20688087;28;20319;-56
2021/03/10 14:14:36;;;;;;;8.40;6.07;;;;;;;7.97;44.79;101004.72;20700782;28;21084;-56
2021/03/10 14:24:36;;;;;;;11.87;6.23;;;;;;;7.83;45.44;101003.50;20684953;28;20484;-57
2021/03/10 14:34:37;;;;;;;7.73;5.07;;;;;;;7.66;45.95;100995.38;20684658;28;20246;-57
2021/03/10 14:44:38;;;;;;;6.50;5.60;;;;;;;6.95;46.42;101011.50;20689519;28;20222;-57
2021/03/10 14:54:38;;;;;;;8.53;5.97;;;;;;;6.21;45.68;101007.19;20658208;28;20228;-56
2021/03/10 15:04:40;;;;;;;9.63;7.60;;;;;;;5.48;46.90;100999.91;20677518;28;21016;-56
2021/03/10 15:14:41;;;;;;;9.53;7.10;;;;;;;4.87;48.16;101000.94;20678031;28;20267;-56
2021/03/10 15:24:41;;;;;;;8.77;5.77;;;;;;;4.11;48.97;100997.84;20691744;28;20236;-56
2021/03/10 15:34:43;;;;;;;7.40;4.95;;;;;;;3.52;48.99;100984.41;20673898;28;20224;-56
2021/03/10 15:44:44;;;;;;;6.13;5.00;;;;;;;3.16;49.25;100984.41;20692873;28;20670;-57
2021/03/10 15:54:45;;;;;;;7.67;6.07;;;;;;;2.99;50.16;100975.16;20677025;28;20224;-56
2021/03/10 16:04:46;;;;;;;9.60;7.37;;;;;;;2.72;54.89;100976.63;20667926;28;20236;-56
2021/03/10 16:14:46;;;;;;;33.55;19.63;;;;;;;2.31;53.71;100980.97;20655785;28;20291;-57
2021/03/10 16:24:47;;;;;;;29.43;17.33;;;;;;;1.81;54.14;100974.06;20664032;28;20244;-56
2021/03/10 16:34:47;;;;;;;15.47;9.13;;;;;;;1.26;54.95;100985.50;20715014;28;20217;-58
2021/03/10 16:44:48;;;;;;;11.60;7.90;;;;;;;0.68;55.87;100978.47;20683336;28;20253;-57
2021/03/10 16:54:48;;;;;;;10.17;7.07;;;;;;;0.07;57.13;100980.97;20714220;28;20259;-57
2021/03/10 17:04:49;;;;;;;10.33;7.83;;;;;;;-0.36;59.98;100981.38;20696693;28;20252;-57
2021/03/10 17:14:49;;;;;;;20.47;11.13;;;;;;;-0.66;61.01;100991.25;20718677;28;20682;-55
2021/03/10 17:24:51;;;;;;;24.40;13.17;;;;;;;-0.60;61.37;100994.69;20697764;28;20308;-56
2021/03/10 17:34:52;;;;;;;18.90;11.53;;;;;;;-0.74;61.70;100993.97;20701219;28;20263;-56
2021/03/10 17:44:52;;;;;;;32.00;18.83;;;;;;;-0.85;62.45;100990.53;20709203;28;20741;-56
2021/03/10 17:54:53;;;;;;;28.30;15.73;;;;;;;-1.00;62.76;100993.25;20723107;28;20308;-55
2021/03/10 18:04:53;;;;;;;50.53;25.10;;;;;;;-1.13;63.13;100995.97;20721670;28;20243;-55
2021/03/10 18:14:54;;;;;;;34.07;17.80;;;;;;;-1.17;63.86;101025.66;20704854;28;20596;-55
2021/03/10 18:24:55;;;;;;;23.07;13.37;;;;;;;-1.27;64.36;101026.56;20729246;28;20236;-55
2021/03/10 18:34:55;;;;;;;20.90;12.53;;;;;;;-1.73;64.36;100991.00;20707534;28;20605;-55
2021/03/10 18:44:56;;;;;;;21.70;14.75;;;;;;;-1.85;64.13;101005.00;20727027;28;20799;-55
2021/03/10 18:54:56;;;;;;;20.30;13.40;;;;;;;-1.59;64.67;101062.47;20704988;28;20232;-55
2021/03/10 19:04:57;;;;;;;17.20;11.03;;;;;;;-1.61;64.99;101059.88;20725493;28;20229;-62
2021/03/10 19:14:58;;;;;;;18.00;10.70;;;;;;;-1.67;65.36;101059.00;20710085;28;20491;-55
2021/03/10 19:24:58;;;;;;;24.17;13.53;;;;;;;-1.65;66.18;101072.94;20717085;28;20232;-54
2021/03/10 19:34:59;;;;;;;18.83;12.70;;;;;;;-2.05;66.24;101005.03;20704890;28;20797;-58
2021/03/10 19:55:06;;;;;;;16.07;11.77;;;;;;;-1.67;67.18;101066.84;20599970;27;7838753;-57
2021/03/10 20:05:08;;;;;;;22.77;13.27;;;;;;;-1.69;67.75;101052.91;20834549;28;20303;-58
2021/03/10 20:15:10;;;;;;;17.83;11.50;;;;;;;-1.83;67.38;101061.66;20846940;28;20315;-57
2021/03/10 20:25:12;;;;;;;21.77;12.83;;;;;;;-1.99;68.32;101062.56;20845590;28;20243;-55
2021/03/10 20:35:14;;;;;;;22.40;13.87;;;;;;;-2.14;68.32;101054.72;20849367;28;20235;-54
2021/03/10 20:45:15;;;;;;;26.80;14.90;;;;;;;-2.25;68.93;101022.50;20835050;28;20242;-55
2021/03/10 20:55:19;;;;;;;23.70;15.03;;;;;;;-2.35;69.31;101020.75;20929048;28;20226;-55
2021/03/10 21:05:21;;;;;;;22.53;14.07;;;;;;;-2.37;69.42;101022.50;20873139;28;20354;-55
2021/03/10 21:15:22;;;;;;;24.37;14.47;;;;;;;-2.39;69.17;101019.00;20875670;28;20809;-55
2021/03/10 21:25:22;;;;;;;24.30;14.87;;;;;;;-2.49;69.77;101015.53;20872930;28;20430;-55
2021/03/10 21:35:23;;;;;;;28.83;17.60;;;;;;;-2.59;70.21;101022.50;20874762;28;20216;-58
2021/03/10 21:45:25;;;;;;;28.00;16.57;;;;;;;-2.76;71.58;101011.16;20875633;28;20482;-57
2021/03/10 21:55:28;;;;;;;24.03;14.73;;;;;;;-2.96;72.25;101005.94;20877005;28;21675;-57
2021/03/10 22:05:28;;;;;;;25.17;16.33;;;;;;;-3.06;73.90;101003.31;20882809;28;20222;-57
2021/03/10 22:15:29;;;;;;;27.80;16.47;;;;;;;-3.26;74.01;101000.66;20877807;28;20749;-58
2021/03/10 22:25:29;;;;;;;33.00;18.03;;;;;;;-3.37;74.84;101002.34;20823942;28;20250;-57
2021/03/10 22:35:30;;;;;;;29.48;18.83;;;;;;;-3.42;75.12;100998.88;20799471;28;20221;-57
2021/03/10 22:45:30;;;;;;;35.30;20.33;;;;;;;-3.48;75.80;100994.47;20863006;28;20238;-58
2021/03/10 22:55:31;;;;;;;34.00;19.67;;;;;;;-3.47;75.83;100987.53;20854319;28;20234;-57
2021/03/10 23:05:33;;;;;;;32.13;18.70;;;;;;;-3.48;76.58;100976.22;20870459;28;20725;-57
2021/03/10 23:15:36;;;;;;;32.93;19.73;;;;;;;-3.51;76.17;100988.41;20883338;28;20893;-58
2021/03/10 23:25:42;;;;;;;29.03;17.93;;;;;;;-3.56;76.59;100985.75;20862630;28;20928;-57
2021/03/10 23:35:57;;;;;;;31.77;18.57;;;;;;;-3.63;77.86;100984.00;20876500;28;20234;-57
2021/03/10 23:45:58;;;;;;;27.83;16.40;;;;;;;-3.78;77.03;100957.88;20855522;28;20242;-58
2021/03/10 23:55:58;;;;;;;34.23;19.77;;;;;;;-3.77;77.84;100970.91;20843417;28;20223;-57
